createdAt,value
2022-10-23T00:00:43.306Z,497.0000
2022-10-23T00:01:45.479Z,497.0000
2022-10-23T00:02:47.753Z,496.0000
2022-10-23T00:03:49.887Z,502.0000
2022-10-23T00:04:52.126Z,498.0000
2022-10-23T00:05:54.365Z,495.0000
2022-10-23T00:06:56.624Z,499.0000
2022-10-23T00:07:58.820Z,496.0000
2022-10-23T00:09:01.033Z,501.0000
2022-10-23T00:10:03.246Z,495.0000
2022-10-23T00:11:05.431Z,496.0000
2022-10-23T00:12:07.663Z,499.0000
2022-10-23T00:13:09.822Z,499.0000
2022-10-23T00:14:12.049Z,498.0000
2022-10-23T00:15:12.128Z,500.0000
2022-10-23T00:16:14.347Z,497.0000
2022-10-23T00:17:16.601Z,495.0000
2022-10-23T00:18:18.822Z,499.0000
2022-10-23T00:19:21.008Z,499.0000
2022-10-23T00:20:23.226Z,502.0000
2022-10-23T00:21:25.435Z,503.0000
2022-10-23T00:22:27.661Z,502.0000
2022-10-23T00:23:29.845Z,501.0000
2022-10-23T00:24:32.047Z,501.0000
2022-10-23T00:25:34.248Z,499.0000
2022-10-23T00:26:36.473Z,501.0000
2022-10-23T00:27:38.902Z,503.0000
2022-10-23T00:28:40.844Z,499.0000
2022-10-23T00:29:43.078Z,506.0000
2022-10-23T00:30:43.095Z,510.0000
2022-10-23T00:31:45.207Z,508.0000
2022-10-23T00:32:45.262Z,508.0000
2022-10-23T00:33:47.466Z,506.0000
2022-10-23T00:34:49.649Z,507.0000
2022-10-23T00:35:51.870Z,505.0000
2022-10-23T00:36:54.098Z,506.0000
2022-10-23T00:37:56.316Z,503.0000
2022-10-23T00:38:58.507Z,506.0000
2022-10-23T00:40:00.727Z,509.0000
2022-10-23T00:41:02.960Z,506.0000
2022-10-23T00:42:05.174Z,509.0000
2022-10-23T00:43:07.420Z,508.0000
2022-10-23T00:44:09.637Z,508.0000
2022-10-23T00:45:11.947Z,505.0000
2022-10-23T00:46:14.060Z,502.0000
2022-10-23T00:47:14.138Z,501.0000
2022-10-23T00:48:16.403Z,499.0000
2022-10-23T00:49:18.642Z,501.0000
2022-10-23T00:50:20.824Z,501.0000
2022-10-23T00:51:23.029Z,505.0000
2022-10-23T00:52:25.220Z,510.0000
2022-10-23T00:53:27.406Z,509.0000
2022-10-23T00:54:29.520Z,513.0000
2022-10-23T00:55:31.694Z,515.0000
2022-10-23T00:56:33.858Z,513.0000
2022-10-23T00:57:36.157Z,514.0000
2022-10-23T00:58:38.215Z,514.0000
2022-10-23T00:59:40.356Z,513.0000
2022-10-23T01:00:42.531Z,512.0000
2022-10-23T01:01:44.964Z,508.0000
2022-10-23T01:02:47.097Z,510.0000
2022-10-23T01:03:49.096Z,510.0000
2022-10-23T01:04:51.263Z,513.0000
2022-10-23T01:05:53.386Z,513.0000
2022-10-23T01:06:55.544Z,520.0000
2022-10-23T01:07:57.714Z,516.0000
2022-10-23T01:08:59.900Z,514.0000
2022-10-23T01:09:59.817Z,515.0000
2022-10-23T01:11:01.928Z,510.0000
2022-10-23T01:12:04.084Z,511.0000
2022-10-23T01:12:42.282Z,498.0000
2022-10-23T01:13:44.954Z,508.0000
2022-10-23T01:14:47.174Z,505.0000
2022-10-23T01:15:49.333Z,505.0000
2022-10-23T01:16:51.528Z,500.0000
2022-10-23T01:17:53.741Z,501.0000
2022-10-23T01:18:53.813Z,495.0000
2022-10-23T01:19:56.040Z,497.0000
2022-10-23T01:20:58.180Z,498.0000
2022-10-23T01:22:00.346Z,501.0000
2022-10-23T01:23:02.560Z,503.0000
2022-10-23T01:24:04.790Z,504.0000
2022-10-23T01:25:07.063Z,504.0000
2022-10-23T01:26:09.233Z,504.0000
2022-10-23T01:27:11.447Z,505.0000
2022-10-23T01:28:13.657Z,504.0000
2022-10-23T01:29:15.875Z,501.0000
2022-10-23T01:30:18.111Z,505.0000
2022-10-23T01:31:20.298Z,504.0000
2022-10-23T01:32:22.528Z,505.0000
2022-10-23T01:33:24.759Z,507.0000
2022-10-23T01:34:24.839Z,505.0000
2022-10-23T01:35:27.175Z,506.0000
2022-10-23T01:36:29.255Z,508.0000
2022-10-23T01:37:31.431Z,507.0000
2022-10-23T01:38:33.611Z,509.0000
2022-10-23T01:39:35.789Z,506.0000
2022-10-23T01:40:37.988Z,508.0000
2022-10-23T01:41:40.127Z,510.0000
2022-10-23T01:42:42.645Z,506.0000
2022-10-23T01:43:44.502Z,510.0000
2022-10-23T01:44:46.670Z,510.0000
2022-10-23T01:45:48.902Z,508.0000
2022-10-23T01:46:51.071Z,509.0000
2022-10-23T01:47:53.288Z,507.0000
2022-10-23T01:48:55.495Z,507.0000
2022-10-23T01:49:57.698Z,509.0000
2022-10-23T01:50:59.921Z,510.0000
2022-10-23T01:52:02.008Z,510.0000
2022-10-23T01:53:04.200Z,509.0000
2022-10-23T01:54:06.402Z,511.0000
2022-10-23T01:55:08.613Z,511.0000
2022-10-23T01:56:08.703Z,510.0000
2022-10-23T01:57:10.889Z,517.0000
2022-10-23T01:58:13.103Z,514.0000
2022-10-23T01:59:15.301Z,516.0000
2022-10-23T02:00:17.543Z,515.0000
2022-10-23T02:01:19.842Z,516.0000
2022-10-23T02:02:21.887Z,518.0000
2022-10-23T02:03:24.016Z,517.0000
2022-10-23T02:04:26.217Z,516.0000
2022-10-23T02:05:28.423Z,516.0000
2022-10-23T02:06:30.709Z,513.0000
2022-10-23T02:07:32.878Z,512.0000
2022-10-23T02:08:35.102Z,511.0000
2022-10-23T02:09:37.322Z,514.0000
2022-10-23T02:10:39.547Z,515.0000
2022-10-23T02:11:41.792Z,519.0000
2022-10-23T02:12:43.991Z,520.0000
2022-10-23T02:13:44.060Z,516.0000
2022-10-23T02:14:46.305Z,514.0000
2022-10-23T02:15:48.471Z,511.0000
2022-10-23T02:16:50.670Z,513.0000
2022-10-23T02:17:52.840Z,514.0000
2022-10-23T02:18:55.011Z,514.0000
2022-10-23T02:19:56.015Z,514.0000
2022-10-23T02:20:58.171Z,514.0000
2022-10-23T02:21:59.351Z,516.0000
2022-10-23T02:23:01.442Z,515.0000
2022-10-23T02:24:03.545Z,515.0000
2022-10-23T02:25:05.685Z,519.0000
2022-10-23T02:26:07.852Z,518.0000
2022-10-23T02:27:10.002Z,516.0000
2022-10-23T02:28:12.190Z,519.0000
2022-10-23T02:29:14.532Z,519.0000
2022-10-23T02:30:16.622Z,520.0000
2022-10-23T02:31:18.821Z,522.0000
2022-10-23T02:32:21.084Z,522.0000
2022-10-23T02:33:23.250Z,524.0000
2022-10-23T02:34:25.452Z,519.0000
2022-10-23T02:35:27.664Z,522.0000
2022-10-23T02:36:27.750Z,518.0000
2022-10-23T02:37:29.985Z,522.0000
2022-10-23T02:38:32.120Z,520.0000
2022-10-23T02:39:34.323Z,522.0000
2022-10-23T02:40:36.526Z,523.0000
2022-10-23T02:41:38.719Z,521.0000
2022-10-23T02:42:40.931Z,520.0000
2022-10-23T02:43:43.106Z,520.0000
2022-10-23T02:44:45.284Z,524.0000
2022-10-23T02:45:47.484Z,522.0000
2022-10-23T02:48:19.855Z,515.0000
2022-10-23T02:49:21.926Z,516.0000
2022-10-23T02:50:24.081Z,517.0000
2022-10-23T02:51:26.279Z,521.0000
2022-10-23T02:52:28.460Z,525.0000
2022-10-23T02:53:30.693Z,524.0000
2022-10-23T02:54:30.659Z,522.0000
2022-10-23T02:55:32.859Z,523.0000
2022-10-23T02:56:37.919Z,522.0000
2022-10-23T02:57:37.242Z,521.0000
2022-10-23T02:58:39.473Z,518.0000
2022-10-23T02:59:41.641Z,521.0000
2022-10-23T03:00:43.794Z,522.0000
2022-10-23T03:01:46.060Z,523.0000
2022-10-23T03:02:48.102Z,519.0000
2022-10-23T03:03:50.298Z,515.0000
2022-10-23T03:04:52.407Z,518.0000
2022-10-23T03:05:54.564Z,523.0000
2022-10-23T03:06:56.671Z,522.0000
2022-10-23T03:07:58.836Z,523.0000
2022-10-23T03:09:01.053Z,518.0000
2022-10-23T03:10:03.140Z,518.0000
2022-10-23T03:11:05.260Z,527.0000
2022-10-23T03:12:07.408Z,525.0000
2022-10-23T03:13:09.566Z,526.0000
2022-10-23T03:14:11.768Z,526.0000
2022-10-23T03:15:13.898Z,521.0000
2022-10-23T03:16:16.074Z,519.0000
2022-10-23T03:17:18.246Z,521.0000
2022-10-23T03:18:20.437Z,521.0000
2022-10-23T03:19:22.655Z,520.0000
2022-10-23T03:20:24.749Z,523.0000
2022-10-23T03:21:26.914Z,520.0000
2022-10-23T03:22:29.096Z,523.0000
2022-10-23T03:23:31.305Z,521.0000
2022-10-23T03:24:33.534Z,522.0000
2022-10-23T03:25:33.555Z,524.0000
2022-10-23T03:26:35.720Z,528.0000
2022-10-23T03:27:37.902Z,525.0000
2022-10-23T03:28:40.123Z,525.0000
2022-10-23T03:29:42.366Z,525.0000
2022-10-23T03:30:44.560Z,524.0000
2022-10-23T03:31:46.783Z,524.0000
2022-10-23T03:32:48.998Z,525.0000
2022-10-23T03:33:51.179Z,526.0000
2022-10-23T03:34:53.450Z,525.0000
2022-10-23T03:35:55.618Z,527.0000
2022-10-23T03:36:55.686Z,528.0000
2022-10-23T03:37:57.824Z,529.0000
2022-10-23T03:38:59.987Z,527.0000
2022-10-23T03:40:02.198Z,532.0000
2022-10-23T03:41:04.436Z,535.0000
2022-10-23T03:42:06.390Z,534.0000
2022-10-23T03:43:08.522Z,533.0000
2022-10-23T03:44:10.675Z,534.0000
2022-10-23T03:45:12.862Z,537.0000
2022-10-23T03:46:14.922Z,535.0000
2022-10-23T03:47:17.062Z,537.0000
2022-10-23T03:48:19.224Z,537.0000
2022-10-23T03:49:21.373Z,543.0000
2022-10-23T03:50:23.572Z,553.0000
2022-10-23T03:51:25.728Z,566.0000
2022-10-23T03:52:27.932Z,575.0000
2022-10-23T03:53:30.131Z,570.0000
2022-10-23T03:54:32.326Z,574.0000
2022-10-23T03:55:34.582Z,572.0000
2022-10-23T03:56:36.730Z,572.0000
2022-10-23T03:57:38.972Z,574.0000
2022-10-23T03:58:41.156Z,576.0000
2022-10-23T03:59:41.211Z,574.0000
2022-10-23T04:01:45.717Z,577.0000
2022-10-23T04:02:47.971Z,577.0000
2022-10-23T04:03:49.915Z,578.0000
2022-10-23T04:04:52.128Z,580.0000
2022-10-23T04:05:54.317Z,581.0000
2022-10-23T04:06:59.069Z,583.0000
2022-10-23T04:07:58.095Z,583.0000
2022-10-23T04:08:59.742Z,585.0000
2022-10-23T04:10:01.848Z,585.0000
2022-10-23T04:11:04.135Z,583.0000
2022-10-23T04:12:06.260Z,579.0000
2022-10-23T04:13:08.426Z,584.0000
2022-10-23T04:14:10.577Z,579.0000
2022-10-23T04:15:12.743Z,588.0000
2022-10-23T04:16:14.941Z,591.0000
2022-10-23T04:17:17.086Z,587.0000
2022-10-23T04:18:19.202Z,586.0000
2022-10-23T04:19:21.289Z,587.0000
2022-10-23T04:20:23.390Z,588.0000
2022-10-23T04:21:25.582Z,591.0000
2022-10-23T04:22:28.596Z,590.0000
2022-10-23T04:23:29.855Z,593.0000
2022-10-23T04:24:32.011Z,590.0000
2022-10-23T04:25:34.281Z,592.0000
2022-10-23T04:26:36.335Z,591.0000
2022-10-23T04:27:38.445Z,595.0000
2022-10-23T04:28:40.590Z,593.0000
2022-10-23T04:29:42.736Z,594.0000
2022-10-23T04:30:44.881Z,598.0000
2022-10-23T04:31:47.065Z,598.0000
2022-10-23T04:32:49.182Z,596.0000
2022-10-23T04:33:51.345Z,591.0000
2022-10-23T04:34:53.499Z,587.0000
2022-10-23T04:35:55.665Z,593.0000
2022-10-23T04:36:57.850Z,592.0000
2022-10-23T04:37:59.963Z,587.0000
2022-10-23T04:39:02.130Z,587.0000
2022-10-23T04:40:04.291Z,585.0000
2022-10-23T04:41:06.450Z,588.0000
2022-10-23T04:42:08.637Z,583.0000
2022-10-23T04:43:10.772Z,585.0000
2022-10-23T04:44:12.865Z,585.0000
2022-10-23T04:45:14.997Z,589.0000
2022-10-23T04:46:17.183Z,586.0000
2022-10-23T04:47:19.377Z,587.0000
2022-10-23T04:48:24.436Z,587.0000
2022-10-23T04:49:23.688Z,589.0000
2022-10-23T04:50:25.855Z,586.0000
2022-10-23T04:51:28.009Z,588.0000
2022-10-23T04:52:30.228Z,584.0000
2022-10-23T04:53:32.349Z,586.0000
2022-10-23T04:54:34.533Z,586.0000
2022-10-23T04:55:36.717Z,585.0000
2022-10-23T04:56:38.922Z,584.0000
2022-10-23T04:57:41.168Z,581.0000
2022-10-23T04:58:43.284Z,580.0000
2022-10-23T04:59:45.476Z,581.0000
2022-10-23T05:00:47.706Z,582.0000
2022-10-23T05:01:49.897Z,582.0000
2022-10-23T05:02:52.079Z,577.0000
2022-10-23T05:03:54.251Z,574.0000
2022-10-23T05:04:56.438Z,572.0000
2022-10-23T05:05:58.579Z,573.0000
2022-10-23T05:07:00.772Z,579.0000
2022-10-23T05:08:03.017Z,575.0000
2022-10-23T05:09:05.176Z,576.0000
2022-10-23T05:10:07.373Z,576.0000
2022-10-23T05:11:09.582Z,578.0000
2022-10-23T05:12:11.729Z,578.0000
2022-10-23T05:13:14.000Z,578.0000
2022-10-23T05:14:20.539Z,581.0000
2022-10-23T05:15:18.346Z,583.0000
2022-10-23T05:16:20.535Z,581.0000
2022-10-23T05:17:22.706Z,582.0000
2022-10-23T05:18:24.881Z,586.0000
2022-10-23T05:19:26.999Z,585.0000
2022-10-23T05:20:29.185Z,587.0000
2022-10-23T05:21:31.375Z,584.0000
2022-10-23T05:22:33.573Z,584.0000
2022-10-23T05:23:35.820Z,585.0000
2022-10-23T05:24:37.980Z,584.0000
2022-10-23T05:25:40.175Z,591.0000
2022-10-23T05:26:42.384Z,587.0000
2022-10-23T05:27:44.992Z,592.0000
2022-10-23T05:28:46.861Z,596.0000
2022-10-23T05:29:48.923Z,594.0000
2022-10-23T05:30:51.071Z,596.0000
2022-10-23T05:31:53.299Z,599.0000
2022-10-23T05:32:55.529Z,601.0000
2022-10-23T05:33:57.787Z,602.0000
2022-10-23T05:34:59.987Z,604.0000
2022-10-23T05:36:02.222Z,602.0000
2022-10-23T05:37:04.451Z,604.0000
2022-10-23T05:38:06.686Z,606.0000
2022-10-23T05:39:08.937Z,610.0000
2022-10-23T05:40:11.096Z,611.0000
2022-10-23T05:41:13.336Z,611.0000
2022-10-23T05:42:15.515Z,610.0000
2022-10-23T05:43:17.699Z,609.0000
2022-10-23T05:44:19.946Z,608.0000
2022-10-23T05:45:22.117Z,608.0000
2022-10-23T05:46:24.370Z,610.0000
2022-10-23T05:47:26.632Z,612.0000
2022-10-23T05:48:35.991Z,612.0000
2022-10-23T05:49:31.163Z,617.0000
2022-10-23T05:50:31.212Z,626.0000
2022-10-23T05:51:33.474Z,626.0000
2022-10-23T05:52:35.728Z,631.0000
2022-10-23T05:53:40.361Z,630.0000
2022-10-23T05:54:40.264Z,635.0000
2022-10-23T05:55:42.505Z,637.0000
2022-10-23T05:56:44.758Z,638.0000
2022-10-23T05:57:46.971Z,639.0000
2022-10-23T05:58:49.187Z,637.0000
2022-10-23T05:59:51.482Z,641.0000
2022-10-23T06:00:53.687Z,645.0000
2022-10-23T06:01:56.135Z,644.0000
2022-10-23T06:02:58.194Z,644.0000
2022-10-23T06:04:00.420Z,643.0000
2022-10-23T06:05:02.642Z,645.0000
2022-10-23T06:06:04.797Z,642.0000
2022-10-23T06:07:06.993Z,645.0000
2022-10-23T06:08:07.025Z,652.0000
2022-10-23T06:09:09.214Z,651.0000
2022-10-23T06:10:11.435Z,652.0000
2022-10-23T06:11:13.554Z,654.0000
2022-10-23T06:12:15.742Z,656.0000
2022-10-23T06:13:17.913Z,656.0000
2022-10-23T06:14:17.966Z,656.0000
2022-10-23T06:15:20.158Z,658.0000
2022-10-23T06:16:22.311Z,661.0000
2022-10-23T06:17:24.487Z,662.0000
2022-10-23T06:18:26.688Z,665.0000
2022-10-23T06:19:28.885Z,666.0000
2022-10-23T06:20:31.109Z,666.0000
2022-10-23T06:21:33.277Z,666.0000
2022-10-23T06:22:35.468Z,666.0000
2022-10-23T06:23:37.662Z,669.0000
2022-10-23T06:24:39.857Z,668.0000
2022-10-23T06:25:42.011Z,663.0000
2022-10-23T06:26:44.100Z,662.0000
2022-10-23T06:27:30.886Z,652.0000
2022-10-23T06:28:31.402Z,647.0000
2022-10-23T06:29:33.519Z,653.0000
2022-10-23T06:30:35.778Z,647.0000
2022-10-23T06:31:37.864Z,647.0000
2022-10-23T06:32:39.983Z,651.0000
2022-10-23T06:33:42.149Z,658.0000
2022-10-23T06:34:44.329Z,659.0000
2022-10-23T06:35:46.511Z,666.0000
2022-10-23T06:36:48.722Z,665.0000
2022-10-23T06:37:50.860Z,664.0000
2022-10-23T06:38:53.107Z,667.0000
2022-10-23T06:39:55.230Z,669.0000
2022-10-23T06:40:57.401Z,671.0000
2022-10-23T06:41:59.618Z,669.0000
2022-10-23T06:43:01.779Z,662.0000
2022-10-23T06:44:03.979Z,668.0000
2022-10-23T06:45:07.211Z,668.0000
2022-10-23T06:46:08.394Z,668.0000
2022-10-23T06:47:08.484Z,667.0000
2022-10-23T06:48:10.569Z,671.0000
2022-10-23T06:49:12.778Z,670.0000
2022-10-23T06:50:15.705Z,676.0000
2022-10-23T06:51:17.159Z,672.0000
2022-10-23T06:52:41.779Z,670.0000
2022-10-23T06:53:21.525Z,673.0000
2022-10-23T06:54:23.670Z,673.0000
2022-10-23T06:55:25.888Z,669.0000
2022-10-23T06:56:27.918Z,671.0000
2022-10-23T06:57:30.066Z,671.0000
2022-10-23T06:58:32.199Z,671.0000
2022-10-23T06:59:34.352Z,674.0000
2022-10-23T07:00:36.579Z,674.0000
2022-10-23T07:01:39.037Z,669.0000
2022-10-23T07:02:41.377Z,669.0000
2022-10-23T07:03:43.031Z,664.0000
2022-10-23T07:04:45.227Z,664.0000
2022-10-23T07:05:47.442Z,665.0000
2022-10-23T07:06:49.656Z,662.0000
2022-10-23T07:07:51.881Z,659.0000
2022-10-23T07:08:54.079Z,660.0000
2022-10-23T07:09:56.283Z,661.0000
2022-10-23T07:10:58.503Z,659.0000
2022-10-23T07:11:58.610Z,661.0000
2022-10-23T07:13:01.138Z,659.0000
2022-10-23T07:14:03.055Z,655.0000
2022-10-23T07:15:05.300Z,658.0000
2022-10-23T07:16:07.543Z,657.0000
2022-10-23T07:17:09.809Z,653.0000
2022-10-23T07:18:12.061Z,655.0000
2022-10-23T07:19:14.262Z,639.0000
2022-10-23T07:20:16.468Z,643.0000
2022-10-23T07:21:18.682Z,640.0000
2022-10-23T07:22:20.903Z,642.0000
2022-10-23T07:23:23.175Z,646.0000
2022-10-23T07:24:23.239Z,648.0000
2022-10-23T07:25:25.453Z,645.0000
2022-10-23T07:26:27.692Z,640.0000
2022-10-23T07:27:29.942Z,633.0000
2022-10-23T07:28:32.204Z,637.0000
2022-10-23T07:29:34.419Z,641.0000
2022-10-23T07:30:36.670Z,639.0000
2022-10-23T07:31:38.951Z,639.0000
2022-10-23T07:32:41.207Z,638.0000
2022-10-23T07:33:41.327Z,638.0000
2022-10-23T07:34:43.532Z,632.0000
2022-10-23T07:35:45.740Z,629.0000
2022-10-23T07:36:47.983Z,628.0000
2022-10-23T07:37:50.195Z,626.0000
2022-10-23T07:38:52.477Z,626.0000
2022-10-23T07:39:54.672Z,625.0000
2022-10-23T07:40:56.912Z,624.0000
2022-10-23T07:41:59.162Z,623.0000
2022-10-23T07:42:59.272Z,615.0000
2022-10-23T07:43:49.048Z,624.0000
2022-10-23T07:45:51.159Z,616.0000
2022-10-23T07:46:53.144Z,617.0000
2022-10-23T07:47:55.393Z,616.0000
2022-10-23T07:48:55.449Z,615.0000
2022-10-23T07:49:57.675Z,614.0000
2022-10-23T07:50:59.945Z,615.0000
2022-10-23T07:53:04.351Z,613.0000
2022-10-23T07:53:53.736Z,613.0000
2022-10-23T07:54:55.947Z,615.0000
2022-10-23T07:55:58.172Z,611.0000
2022-10-23T07:57:00.421Z,607.0000
2022-10-23T07:58:02.616Z,605.0000
2022-10-23T07:59:02.695Z,607.0000
2022-10-23T08:00:04.916Z,609.0000
2022-10-23T08:01:07.217Z,608.0000
2022-10-23T08:02:09.441Z,609.0000
2022-10-23T08:03:11.608Z,604.0000
2022-10-23T08:04:13.773Z,603.0000
2022-10-23T08:05:15.959Z,603.0000
2022-10-23T08:06:18.154Z,606.0000
2022-10-23T08:07:20.292Z,606.0000
2022-10-23T08:08:22.473Z,603.0000
2022-10-23T08:09:24.653Z,601.0000
2022-10-23T08:10:26.856Z,599.0000
2022-10-23T08:11:29.049Z,596.0000
2022-10-23T08:12:31.233Z,599.0000
2022-10-23T08:13:33.345Z,601.0000
2022-10-23T08:14:35.570Z,600.0000
2022-10-23T08:15:37.767Z,592.0000
2022-10-23T08:16:39.967Z,596.0000
2022-10-23T08:17:42.518Z,595.0000
2022-10-23T08:18:44.354Z,597.0000
2022-10-23T08:19:46.541Z,598.0000
2022-10-23T08:20:46.614Z,600.0000
2022-10-23T08:21:48.833Z,596.0000
2022-10-23T08:22:51.058Z,591.0000
2022-10-23T08:23:53.229Z,592.0000
2022-10-23T08:24:55.456Z,591.0000
2022-10-23T08:25:57.615Z,592.0000
2022-10-23T08:26:59.832Z,595.0000
2022-10-23T08:28:04.285Z,593.0000
2022-10-23T08:29:04.282Z,593.0000
2022-10-23T08:30:06.500Z,591.0000
2022-10-23T08:31:08.717Z,590.0000
2022-10-23T08:32:10.887Z,588.0000
2022-10-23T08:33:13.136Z,587.0000
2022-10-23T08:34:15.390Z,587.0000
2022-10-23T08:35:15.401Z,586.0000
2022-10-23T08:36:17.624Z,585.0000
2022-10-23T08:37:19.813Z,586.0000
2022-10-23T08:38:22.079Z,584.0000
2022-10-23T08:39:24.252Z,588.0000
2022-10-23T08:40:26.482Z,584.0000
2022-10-23T08:41:28.675Z,583.0000
2022-10-23T08:42:30.863Z,585.0000
2022-10-23T08:43:33.115Z,585.0000
2022-10-23T08:44:35.307Z,585.0000
2022-10-23T08:45:37.525Z,583.0000
2022-10-23T08:46:39.745Z,584.0000
2022-10-23T08:47:41.973Z,581.0000
2022-10-23T08:48:44.211Z,580.0000
2022-10-23T08:49:46.404Z,580.0000
2022-10-23T08:50:46.448Z,580.0000
2022-10-23T08:51:48.659Z,579.0000
2022-10-23T08:52:50.869Z,578.0000
2022-10-23T08:53:53.102Z,581.0000
2022-10-23T08:54:55.276Z,597.0000
2022-10-23T08:55:57.650Z,579.0000
2022-10-23T08:56:59.705Z,581.0000
2022-10-23T08:58:01.922Z,584.0000
2022-10-23T08:59:04.129Z,582.0000
2022-10-23T09:00:06.308Z,581.0000
2022-10-23T09:01:08.646Z,584.0000
2022-10-23T09:02:10.912Z,588.0000
2022-10-23T09:03:10.767Z,590.0000
2022-10-23T09:04:12.946Z,592.0000
2022-10-23T09:05:15.076Z,596.0000
2022-10-23T09:06:17.192Z,603.0000
2022-10-23T09:07:19.348Z,610.0000
2022-10-23T09:08:19.362Z,614.0000
2022-10-23T09:09:21.547Z,617.0000
2022-10-23T09:10:23.736Z,618.0000
2022-10-23T09:11:25.896Z,618.0000
2022-10-23T09:12:28.083Z,623.0000
2022-10-23T09:13:30.246Z,634.0000
2022-10-23T09:14:32.468Z,627.0000
2022-10-23T09:15:34.569Z,630.0000
2022-10-23T09:16:36.736Z,629.0000
2022-10-23T09:17:38.907Z,631.0000
2022-10-23T09:18:41.092Z,636.0000
2022-10-23T09:19:43.315Z,630.0000
2022-10-23T09:20:45.495Z,629.0000
2022-10-23T09:21:47.680Z,632.0000
2022-10-23T09:22:49.872Z,634.0000
2022-10-23T09:23:52.043Z,638.0000
2022-10-23T09:24:54.294Z,640.0000
2022-10-23T09:25:56.486Z,643.0000
2022-10-23T09:26:48.573Z,626.0000
2022-10-23T09:27:53.189Z,626.0000
2022-10-23T09:28:52.381Z,623.0000
2022-10-23T09:29:54.546Z,626.0000
2022-10-23T09:30:56.755Z,624.0000
2022-10-23T09:31:58.918Z,628.0000
2022-10-23T09:33:01.125Z,628.0000
2022-10-23T09:34:03.356Z,628.0000
2022-10-23T09:35:05.546Z,631.0000
2022-10-23T09:36:07.778Z,631.0000
2022-10-23T09:37:09.941Z,632.0000
2022-10-23T09:38:12.062Z,635.0000
2022-10-23T09:39:14.215Z,633.0000
2022-10-23T09:40:16.334Z,633.0000
2022-10-23T09:41:18.462Z,637.0000
2022-10-23T09:42:18.429Z,641.0000
2022-10-23T09:43:20.559Z,640.0000
2022-10-23T09:44:22.732Z,642.0000
2022-10-23T09:45:24.943Z,648.0000
2022-10-23T09:46:27.184Z,648.0000
2022-10-23T09:47:29.347Z,652.0000
2022-10-23T09:48:31.559Z,649.0000
2022-10-23T09:49:33.773Z,648.0000
2022-10-23T09:50:35.994Z,652.0000
2022-10-23T09:51:38.252Z,650.0000
2022-10-23T09:52:40.435Z,655.0000
2022-10-23T09:53:42.649Z,656.0000
2022-10-23T09:54:42.699Z,658.0000
2022-10-23T09:55:44.898Z,655.0000
2022-10-23T09:57:49.282Z,658.0000
2022-10-23T09:58:51.486Z,660.0000
2022-10-23T09:59:53.666Z,661.0000
2022-10-23T10:00:55.874Z,662.0000
2022-10-23T10:01:58.267Z,663.0000
2022-10-23T10:03:00.189Z,662.0000
2022-10-23T10:04:02.391Z,664.0000
2022-10-23T10:05:04.628Z,665.0000
2022-10-23T10:06:06.842Z,667.0000
2022-10-23T10:07:06.983Z,666.0000
2022-10-23T10:08:09.157Z,659.0000
2022-10-23T10:09:09.221Z,661.0000
2022-10-23T10:10:11.443Z,658.0000
2022-10-23T10:11:13.652Z,659.0000
2022-10-23T10:12:15.870Z,665.0000
2022-10-23T10:13:18.072Z,664.0000
2022-10-23T10:14:20.282Z,664.0000
2022-10-23T10:15:22.520Z,665.0000
2022-10-23T10:16:24.746Z,683.0000
2022-10-23T10:17:27.013Z,693.0000
2022-10-23T10:18:29.212Z,696.0000
2022-10-23T10:19:31.430Z,697.0000
2022-10-23T10:20:33.671Z,703.0000
2022-10-23T10:21:35.919Z,702.0000
2022-10-23T10:22:36.090Z,700.0000
2022-10-23T10:23:38.269Z,702.0000
2022-10-23T10:24:40.513Z,701.0000
2022-10-23T10:25:42.763Z,703.0000
2022-10-23T10:26:45.010Z,699.0000
2022-10-23T10:27:47.277Z,699.0000
2022-10-23T10:28:49.515Z,672.0000
2022-10-23T10:29:51.761Z,655.0000
2022-10-23T10:30:54.015Z,668.0000
2022-10-23T10:31:56.261Z,685.0000
2022-10-23T10:32:56.369Z,701.0000
2022-10-23T10:33:58.525Z,700.0000
2022-10-23T10:35:00.708Z,699.0000
2022-10-23T10:36:02.919Z,697.0000
2022-10-23T10:37:05.153Z,693.0000
2022-10-23T10:38:07.433Z,696.0000
2022-10-23T10:39:09.592Z,686.0000
2022-10-23T10:40:11.773Z,682.0000
2022-10-23T10:41:13.972Z,679.0000
2022-10-23T10:42:16.164Z,695.0000
2022-10-23T10:43:18.416Z,707.0000
2022-10-23T10:44:20.632Z,702.0000
2022-10-23T10:45:22.876Z,701.0000
2022-10-23T10:46:22.966Z,703.0000
2022-10-23T10:47:25.197Z,718.0000
2022-10-23T10:48:27.395Z,712.0000
2022-10-23T10:49:29.582Z,713.0000
2022-10-23T10:50:31.761Z,721.0000
2022-10-23T10:51:33.921Z,726.0000
2022-10-23T10:52:36.072Z,724.0000
2022-10-23T10:53:38.296Z,724.0000
2022-10-23T10:54:40.423Z,727.0000
2022-10-23T10:55:42.558Z,729.0000
2022-10-23T10:56:44.720Z,722.0000
2022-10-23T10:57:47.225Z,723.0000
2022-10-23T10:58:49.125Z,719.0000
2022-10-23T10:59:51.293Z,713.0000
2022-10-23T11:00:53.496Z,711.0000
2022-10-23T11:01:55.740Z,709.0000
2022-10-23T11:02:57.818Z,706.0000
2022-10-23T11:04:00.025Z,700.0000
2022-10-23T11:05:02.191Z,699.0000
2022-10-23T11:06:04.354Z,698.0000
2022-10-23T11:07:06.549Z,698.0000
2022-10-23T11:08:08.696Z,697.0000
2022-10-23T11:09:20.138Z,695.0000
2022-10-23T11:10:14.174Z,690.0000
2022-10-23T11:11:16.297Z,686.0000
2022-10-23T11:12:17.451Z,683.0000
2022-10-23T11:13:19.657Z,682.0000
2022-10-23T11:14:19.765Z,684.0000
2022-10-23T11:15:22.022Z,683.0000
2022-10-23T11:16:24.322Z,677.0000
2022-10-23T11:17:26.574Z,677.0000
2022-10-23T11:18:28.827Z,677.0000
2022-10-23T11:19:31.124Z,685.0000
2022-10-23T11:20:33.350Z,704.0000
2022-10-23T11:21:35.598Z,688.0000
2022-10-23T11:22:37.834Z,690.0000
2022-10-23T11:23:37.914Z,695.0000
2022-10-23T11:24:41.444Z,691.0000
2022-10-23T11:25:42.357Z,695.0000
2022-10-23T11:26:44.571Z,691.0000
2022-10-23T11:27:46.742Z,688.0000
2022-10-23T11:28:48.963Z,685.0000
2022-10-23T11:29:51.198Z,683.0000
2022-10-23T11:30:53.388Z,683.0000
2022-10-23T11:31:55.581Z,685.0000
2022-10-23T11:32:57.791Z,686.0000
2022-10-23T11:34:00.015Z,681.0000
2022-10-23T11:35:00.138Z,680.0000
2022-10-23T11:36:02.330Z,682.0000
2022-10-23T11:37:04.568Z,682.0000
2022-10-23T11:38:06.808Z,683.0000
2022-10-23T11:39:09.050Z,683.0000
2022-10-23T11:40:11.287Z,680.0000
2022-10-23T11:41:13.462Z,679.0000
2022-10-23T11:42:15.709Z,677.0000
2022-10-23T11:43:17.963Z,674.0000
2022-10-23T11:44:20.223Z,672.0000
2022-10-23T11:45:22.505Z,673.0000
2022-10-23T11:46:22.559Z,672.0000
2022-10-23T11:47:24.809Z,674.0000
2022-10-23T11:48:27.057Z,671.0000
2022-10-23T11:49:29.318Z,670.0000
2022-10-23T11:50:31.594Z,668.0000
2022-10-23T11:51:33.812Z,669.0000
2022-10-23T11:52:42.108Z,669.0000
2022-10-23T11:53:38.264Z,667.0000
2022-10-23T11:54:40.515Z,663.0000
2022-10-23T11:55:42.808Z,662.0000
2022-10-23T11:56:44.980Z,663.0000
2022-10-23T11:57:45.025Z,665.0000
2022-10-23T11:58:47.219Z,665.0000
2022-10-23T11:59:49.408Z,664.0000
2022-10-23T12:00:51.653Z,659.0000
2022-10-23T12:01:53.878Z,656.0000
2022-10-23T12:02:59.157Z,652.0000
2022-10-23T12:03:58.381Z,652.0000
2022-10-23T12:05:00.627Z,647.0000
2022-10-23T12:06:02.902Z,649.0000
2022-10-23T12:07:05.063Z,648.0000
2022-10-23T12:08:07.246Z,648.0000
2022-10-23T12:09:09.445Z,647.0000
2022-10-23T12:10:11.680Z,648.0000
2022-10-23T12:11:11.724Z,650.0000
2022-10-23T12:12:13.867Z,652.0000
2022-10-23T12:13:16.033Z,654.0000